sensor_id;sensor_type;location;lat;lon;timestamp;P1;P2;P0
59758;PMS5003;61150;62.516;17.862;2022-08-19T00:01:57;15;15;
59758;PMS5003;61150;62.516;17.862;2022-08-19T00:04:27;15;15;
59758;PMS5003;61150;62.516;17.862;2022-08-19T00:06:56;10;10;
59758;PMS5003;61150;62.516;17.862;2022-08-19T00:09:25;5;5;
59758;PMS5003;61150;62.516;17.862;2022-08-19T00:11:54;4;4;
59758;PMS5003;61150;62.516;17.862;2022-08-19T00:14:25;7;6;
59758;PMS5003;61150;62.516;17.862;2022-08-19T00:16:55;5;5;
59758;PMS5003;61150;62.516;17.862;2022-08-19T00:19:24;4;4;
59758;PMS5003;61150;62.516;17.862;2022-08-19T00:21:52;4;4;
59758;PMS5003;61150;62.516;17.862;2022-08-19T00:24:21;5;5;
59758;PMS5003;61150;62.516;17.862;2022-08-19T00:26:50;4;4;
59758;PMS5003;61150;62.516;17.862;2022-08-19T00:29:22;6;4;
59758;PMS5003;61150;62.516;17.862;2022-08-19T00:31:52;4;4;
59758;PMS5003;61150;62.516;17.862;2022-08-19T00:34:21;6;6;
59758;PMS5003;61150;62.516;17.862;2022-08-19T00:36:50;5;5;
59758;PMS5003;61150;62.516;17.862;2022-08-19T00:39:19;4;4;
59758;PMS5003;61150;62.516;17.862;2022-08-19T00:41:48;6;6;
59758;PMS5003;61150;62.516;17.862;2022-08-19T00:44:17;8;8;
59758;PMS5003;61150;62.516;17.862;2022-08-19T00:46:49;6;6;
59758;PMS5003;61150;62.516;17.862;2022-08-19T00:49:20;4;4;
59758;PMS5003;61150;62.516;17.862;2022-08-19T00:51:55;3;3;
59758;PMS5003;61150;62.516;17.862;2022-08-19T00:54:29;6;5;
59758;PMS5003;61150;62.516;17.862;2022-08-19T00:56:59;7;6;
59758;PMS5003;61150;62.516;17.862;2022-08-19T00:59:33;5;4;
59758;PMS5003;61150;62.516;17.862;2022-08-19T01:02:56;5;5;
59758;PMS5003;61150;62.516;17.862;2022-08-19T01:05:25;9;9;
59758;PMS5003;61150;62.516;17.862;2022-08-19T01:07:56;8;8;
59758;PMS5003;61150;62.516;17.862;2022-08-19T01:10:26;8;8;
59758;PMS5003;61150;62.516;17.862;2022-08-19T01:12:58;12;11;
59758;PMS5003;61150;62.516;17.862;2022-08-19T01:15:32;9;9;
59758;PMS5003;61150;62.516;17.862;2022-08-19T01:18:07;7;7;
59758;PMS5003;61150;62.516;17.862;2022-08-19T01:20:39;12;12;
59758;PMS5003;61150;62.516;17.862;2022-08-19T01:23:08;10;9;
59758;PMS5003;61150;62.516;17.862;2022-08-19T01:25:39;12;12;
59758;PMS5003;61150;62.516;17.862;2022-08-19T01:28:15;9;9;
59758;PMS5003;61150;62.516;17.862;2022-08-19T01:30:45;8;8;
59758;PMS5003;61150;62.516;17.862;2022-08-19T01:33:14;12;11;
59758;PMS5003;61150;62.516;17.862;2022-08-19T01:35:43;7;7;
59758;PMS5003;61150;62.516;17.862;2022-08-19T01:38:19;7;7;
59758;PMS5003;61150;62.516;17.862;2022-08-19T01:40:51;15;14;
59758;PMS5003;61150;62.516;17.862;2022-08-19T01:43:19;8;8;
59758;PMS5003;61150;62.516;17.862;2022-08-19T01:45:49;8;7;
59758;PMS5003;61150;62.516;17.862;2022-08-19T01:48:18;14;13;
59758;PMS5003;61150;62.516;17.862;2022-08-19T01:50:46;15;15;
59758;PMS5003;61150;62.516;17.862;2022-08-19T01:53:15;11;10;
59758;PMS5003;61150;62.516;17.862;2022-08-19T01:55:43;13;12;
59758;PMS5003;61150;62.516;17.862;2022-08-19T01:58:13;13;13;
59758;PMS5003;61150;62.516;17.862;2022-08-19T02:00:46;11;10;
59758;PMS5003;61150;62.516;17.862;2022-08-19T02:03:15;14;13;
59758;PMS5003;61150;62.516;17.862;2022-08-19T02:05:44;7;7;
59758;PMS5003;61150;62.516;17.862;2022-08-19T02:08:13;7;7;
59758;PMS5003;61150;62.516;17.862;2022-08-19T02:10:42;10;10;
59758;PMS5003;61150;62.516;17.862;2022-08-19T02:13:12;9;9;
59758;PMS5003;61150;62.516;17.862;2022-08-19T02:15:41;8;8;
59758;PMS5003;61150;62.516;17.862;2022-08-19T02:18:10;13;11;
59758;PMS5003;61150;62.516;17.862;2022-08-19T02:20:40;8;8;
59758;PMS5003;61150;62.516;17.862;2022-08-19T02:23:10;5;5;
59758;PMS5003;61150;62.516;17.862;2022-08-19T02:25:41;5;4;
59758;PMS5003;61150;62.516;17.862;2022-08-19T02:28:11;7;6;
59758;PMS5003;61150;62.516;17.862;2022-08-19T02:30:40;7;7;
59758;PMS5003;61150;62.516;17.862;2022-08-19T02:33:10;9;9;
59758;PMS5003;61150;62.516;17.862;2022-08-19T02:35:40;8;8;
59758;PMS5003;61150;62.516;17.862;2022-08-19T02:38:10;7;6;
59758;PMS5003;61150;62.516;17.862;2022-08-19T02:40:39;6;6;
59758;PMS5003;61150;62.516;17.862;2022-08-19T02:43:08;8;7;
59758;PMS5003;61150;62.516;17.862;2022-08-19T02:45:38;8;8;
59758;PMS5003;61150;62.516;17.862;2022-08-19T02:48:07;6;6;
59758;PMS5003;61150;62.516;17.862;2022-08-19T02:50:37;7;7;
59758;PMS5003;61150;62.516;17.862;2022-08-19T02:53:06;6;6;
59758;PMS5003;61150;62.516;17.862;2022-08-19T02:55:35;8;8;
59758;PMS5003;61150;62.516;17.862;2022-08-19T02:58:04;9;9;
59758;PMS5003;61150;62.516;17.862;2022-08-19T03:00:32;12;11;
59758;PMS5003;61150;62.516;17.862;2022-08-19T03:03:01;7;7;
59758;PMS5003;61150;62.516;17.862;2022-08-19T03:05:30;8;8;
59758;PMS5003;61150;62.516;17.862;2022-08-19T03:07:59;9;9;
59758;PMS5003;61150;62.516;17.862;2022-08-19T03:10:28;7;7;
59758;PMS5003;61150;62.516;17.862;2022-08-19T03:12:57;7;7;
59758;PMS5003;61150;62.516;17.862;2022-08-19T03:15:25;7;7;
59758;PMS5003;61150;62.516;17.862;2022-08-19T03:17:54;6;6;
59758;PMS5003;61150;62.516;17.862;2022-08-19T03:20:23;6;6;
59758;PMS5003;61150;62.516;17.862;2022-08-19T03:22:52;8;8;
59758;PMS5003;61150;62.516;17.862;2022-08-19T03:25:20;6;6;
59758;PMS5003;61150;62.516;17.862;2022-08-19T03:27:49;9;8;
59758;PMS5003;61150;62.516;17.862;2022-08-19T03:30:18;8;7;
59758;PMS5003;61150;62.516;17.862;2022-08-19T03:32:47;7;7;
59758;PMS5003;61150;62.516;17.862;2022-08-19T03:35:16;9;9;
59758;PMS5003;61150;62.516;17.862;2022-08-19T03:37:44;9;9;
59758;PMS5003;61150;62.516;17.862;2022-08-19T03:40:13;8;8;
59758;PMS5003;61150;62.516;17.862;2022-08-19T03:42:42;7;7;
59758;PMS5003;61150;62.516;17.862;2022-08-19T03:45:10;8;7;
59758;PMS5003;61150;62.516;17.862;2022-08-19T03:47:39;8;8;
59758;PMS5003;61150;62.516;17.862;2022-08-19T03:50:08;9;8;
59758;PMS5003;61150;62.516;17.862;2022-08-19T03:52:37;7;7;
59758;PMS5003;61150;62.516;17.862;2022-08-19T03:55:06;9;9;
59758;PMS5003;61150;62.516;17.862;2022-08-19T03:57:34;7;7;
59758;PMS5003;61150;62.516;17.862;2022-08-19T04:02:53;11;10;
59758;PMS5003;61150;62.516;17.862;2022-08-19T04:05:22;10;7;
59758;PMS5003;61150;62.516;17.862;2022-08-19T04:07:50;10;10;
59758;PMS5003;61150;62.516;17.862;2022-08-19T04:10:20;11;11;
59758;PMS5003;61150;62.516;17.862;2022-08-19T04:12:49;10;10;
59758;PMS5003;61150;62.516;17.862;2022-08-19T04:15:17;9;9;
59758;PMS5003;61150;62.516;17.862;2022-08-19T04:17:47;13;13;
59758;PMS5003;61150;62.516;17.862;2022-08-19T04:20:16;13;11;
59758;PMS5003;61150;62.516;17.862;2022-08-19T04:22:45;11;11;
59758;PMS5003;61150;62.516;17.862;2022-08-19T04:25:14;14;13;
59758;PMS5003;61150;62.516;17.862;2022-08-19T04:27:43;11;11;
59758;PMS5003;61150;62.516;17.862;2022-08-19T04:30:12;13;11;
59758;PMS5003;61150;62.516;17.862;2022-08-19T04:32:42;12;12;
59758;PMS5003;61150;62.516;17.862;2022-08-19T04:35:11;13;13;
59758;PMS5003;61150;62.516;17.862;2022-08-19T04:37:39;12;11;
59758;PMS5003;61150;62.516;17.862;2022-08-19T04:40:08;14;13;
59758;PMS5003;61150;62.516;17.862;2022-08-19T04:42:39;11;10;
59758;PMS5003;61150;62.516;17.862;2022-08-19T04:45:09;12;11;
59758;PMS5003;61150;62.516;17.862;2022-08-19T04:47:39;12;11;
59758;PMS5003;61150;62.516;17.862;2022-08-19T04:50:09;14;14;
59758;PMS5003;61150;62.516;17.862;2022-08-19T04:52:39;15;14;
59758;PMS5003;61150;62.516;17.862;2022-08-19T04:55:07;16;14;
59758;PMS5003;61150;62.516;17.862;2022-08-19T04:57:36;15;14;
59758;PMS5003;61150;62.516;17.862;2022-08-19T05:00:06;13;12;
59758;PMS5003;61150;62.516;17.862;2022-08-19T05:02:37;13;12;
59758;PMS5003;61150;62.516;17.862;2022-08-19T05:05:07;16;15;
59758;PMS5003;61150;62.516;17.862;2022-08-19T05:07:35;16;15;
59758;PMS5003;61150;62.516;17.862;2022-08-19T05:10:04;15;15;
59758;PMS5003;61150;62.516;17.862;2022-08-19T05:12:33;16;14;
59758;PMS5003;61150;62.516;17.862;2022-08-19T05:15:04;16;15;
59758;PMS5003;61150;62.516;17.862;2022-08-19T05:17:34;16;15;
59758;PMS5003;61150;62.516;17.862;2022-08-19T05:20:03;15;13;
59758;PMS5003;61150;62.516;17.862;2022-08-19T05:22:32;14;14;
59758;PMS5003;61150;62.516;17.862;2022-08-19T05:25:04;14;12;
59758;PMS5003;61150;62.516;17.862;2022-08-19T05:27:35;10;9;
59758;PMS5003;61150;62.516;17.862;2022-08-19T05:30:04;12;11;
59758;PMS5003;61150;62.516;17.862;2022-08-19T05:32:34;14;13;
59758;PMS5003;61150;62.516;17.862;2022-08-19T05:35:03;10;10;
59758;PMS5003;61150;62.516;17.862;2022-08-19T05:37:32;29;28;
59758;PMS5003;61150;62.516;17.862;2022-08-19T05:40:01;13;13;
59758;PMS5003;61150;62.516;17.862;2022-08-19T05:42:29;27;26;
59758;PMS5003;61150;62.516;17.862;2022-08-19T05:44:58;18;18;
59758;PMS5003;61150;62.516;17.862;2022-08-19T05:47:27;72;72;
59758;PMS5003;61150;62.516;17.862;2022-08-19T05:49:56;26;23;
59758;PMS5003;61150;62.516;17.862;2022-08-19T05:52:24;28;26;
59758;PMS5003;61150;62.516;17.862;2022-08-19T05:54:52;28;28;
59758;PMS5003;61150;62.516;17.862;2022-08-19T05:57:22;19;19;
59758;PMS5003;61150;62.516;17.862;2022-08-19T05:59:50;21;20;
59758;PMS5003;61150;62.516;17.862;2022-08-19T06:02:20;18;18;
59758;PMS5003;61150;62.516;17.862;2022-08-19T06:04:49;42;40;
59758;PMS5003;61150;62.516;17.862;2022-08-19T06:07:17;20;19;
59758;PMS5003;61150;62.516;17.862;2022-08-19T06:09:46;25;24;
59758;PMS5003;61150;62.516;17.862;2022-08-19T06:12:15;62;60;
59758;PMS5003;61150;62.516;17.862;2022-08-19T06:14:43;29;28;
59758;PMS5003;61150;62.516;17.862;2022-08-19T06:17:10;29;28;
59758;PMS5003;61150;62.516;17.862;2022-08-19T06:19:38;23;22;
59758;PMS5003;61150;62.516;17.862;2022-08-19T06:22:06;21;21;
59758;PMS5003;61150;62.516;17.862;2022-08-19T06:24:34;26;25;
59758;PMS5003;61150;62.516;17.862;2022-08-19T06:27:04;22;21;
59758;PMS5003;61150;62.516;17.862;2022-08-19T06:29:33;20;18;
59758;PMS5003;61150;62.516;17.862;2022-08-19T06:32:03;23;21;
59758;PMS5003;61150;62.516;17.862;2022-08-19T06:34:32;22;21;
59758;PMS5003;61150;62.516;17.862;2022-08-19T06:37:03;14;14;
59758;PMS5003;61150;62.516;17.862;2022-08-19T06:39:33;14;14;
59758;PMS5003;61150;62.516;17.862;2022-08-19T06:42:04;18;18;
59758;PMS5003;61150;62.516;17.862;2022-08-19T06:44:35;15;12;
59758;PMS5003;61150;62.516;17.862;2022-08-19T06:47:04;16;13;
59758;PMS5003;61150;62.516;17.862;2022-08-19T06:49:34;22;21;
59758;PMS5003;61150;62.516;17.862;2022-08-19T06:52:05;16;15;
59758;PMS5003;61150;62.516;17.862;2022-08-19T06:54:36;17;17;
59758;PMS5003;61150;62.516;17.862;2022-08-19T06:57:05;19;19;
59758;PMS5003;61150;62.516;17.862;2022-08-19T06:59:35;17;16;
59758;PMS5003;61150;62.516;17.862;2022-08-19T07:02:49;23;21;
59758;PMS5003;61150;62.516;17.862;2022-08-19T07:05:18;22;22;
59758;PMS5003;61150;62.516;17.862;2022-08-19T07:07:46;22;20;
59758;PMS5003;61150;62.516;17.862;2022-08-19T07:10:16;19;18;
59758;PMS5003;61150;62.516;17.862;2022-08-19T07:12:45;23;22;
59758;PMS5003;61150;62.516;17.862;2022-08-19T07:15:13;16;16;
59758;PMS5003;61150;62.516;17.862;2022-08-19T07:17:43;24;22;
59758;PMS5003;61150;62.516;17.862;2022-08-19T07:20:11;19;19;
59758;PMS5003;61150;62.516;17.862;2022-08-19T07:22:40;19;19;
59758;PMS5003;61150;62.516;17.862;2022-08-19T07:25:09;21;20;
59758;PMS5003;61150;62.516;17.862;2022-08-19T07:27:39;18;17;
59758;PMS5003;61150;62.516;17.862;2022-08-19T07:30:08;21;21;
59758;PMS5003;61150;62.516;17.862;2022-08-19T07:32:36;23;21;
59758;PMS5003;61150;62.516;17.862;2022-08-19T07:35:06;23;22;
59758;PMS5003;61150;62.516;17.862;2022-08-19T07:37:35;21;20;
59758;PMS5003;61150;62.516;17.862;2022-08-19T07:40:05;17;16;
59758;PMS5003;61150;62.516;17.862;2022-08-19T07:42:36;19;19;
59758;PMS5003;61150;62.516;17.862;2022-08-19T07:45:06;19;18;
59758;PMS5003;61150;62.516;17.862;2022-08-19T07:47:36;27;25;
59758;PMS5003;61150;62.516;17.862;2022-08-19T07:50:07;31;30;
59758;PMS5003;61150;62.516;17.862;2022-08-19T07:52:37;17;16;
59758;PMS5003;61150;62.516;17.862;2022-08-19T07:55:06;21;20;
59758;PMS5003;61150;62.516;17.862;2022-08-19T07:57:37;17;17;
59758;PMS5003;61150;62.516;17.862;2022-08-19T08:00:06;29;29;
59758;PMS5003;61150;62.516;17.862;2022-08-19T08:02:35;15;15;
59758;PMS5003;61150;62.516;17.862;2022-08-19T08:05:05;19;18;
59758;PMS5003;61150;62.516;17.862;2022-08-19T08:07:35;26;25;
59758;PMS5003;61150;62.516;17.862;2022-08-19T08:10:04;38;38;
59758;PMS5003;61150;62.516;17.862;2022-08-19T08:12:36;26;26;
59758;PMS5003;61150;62.516;17.862;2022-08-19T08:15:08;17;17;
59758;PMS5003;61150;62.516;17.862;2022-08-19T08:17:38;36;33;
59758;PMS5003;61150;62.516;17.862;2022-08-19T08:20:07;16;15;
59758;PMS5003;61150;62.516;17.862;2022-08-19T08:22:37;25;23;
59758;PMS5003;61150;62.516;17.862;2022-08-19T08:25:11;41;40;
59758;PMS5003;61150;62.516;17.862;2022-08-19T08:27:43;17;16;
59758;PMS5003;61150;62.516;17.862;2022-08-19T08:30:13;16;15;
59758;PMS5003;61150;62.516;17.862;2022-08-19T08:32:44;20;20;
59758;PMS5003;61150;62.516;17.862;2022-08-19T08:35:14;23;22;
59758;PMS5003;61150;62.516;17.862;2022-08-19T08:37:45;23;21;
59758;PMS5003;61150;62.516;17.862;2022-08-19T08:40:18;44;44;
59758;PMS5003;61150;62.516;17.862;2022-08-19T08:42:51;22;20;
59758;PMS5003;61150;62.516;17.862;2022-08-19T08:45:26;21;20;
59758;PMS5003;61150;62.516;17.862;2022-08-19T08:47:57;22;22;
59758;PMS5003;61150;62.516;17.862;2022-08-19T08:50:32;20;20;
59758;PMS5003;61150;62.516;17.862;2022-08-19T08:53:07;18;17;
59758;PMS5003;61150;62.516;17.862;2022-08-19T08:55:39;27;26;
59758;PMS5003;61150;62.516;17.862;2022-08-19T08:58:09;22;22;
59758;PMS5003;61150;62.516;17.862;2022-08-19T09:00:43;23;22;
59758;PMS5003;61150;62.516;17.862;2022-08-19T09:03:16;23;22;
59758;PMS5003;61150;62.516;17.862;2022-08-19T09:05:50;20;20;
59758;PMS5003;61150;62.516;17.862;2022-08-19T09:08:29;20;20;
59758;PMS5003;61150;62.516;17.862;2022-08-19T09:11:08;20;20;
59758;PMS5003;61150;62.516;17.862;2022-08-19T09:13:42;22;22;
59758;PMS5003;61150;62.516;17.862;2022-08-19T09:16:37;30;25;
59758;PMS5003;61150;62.516;17.862;2022-08-19T09:19:07;24;23;
59758;PMS5003;61150;62.516;17.862;2022-08-19T09:21:38;36;35;
59758;PMS5003;61150;62.516;17.862;2022-08-19T09:24:06;48;48;
59758;PMS5003;61150;62.516;17.862;2022-08-19T09:26:34;31;30;
59758;PMS5003;61150;62.516;17.862;2022-08-19T09:29:03;33;32;
59758;PMS5003;61150;62.516;17.862;2022-08-19T09:31:32;32;29;
59758;PMS5003;61150;62.516;17.862;2022-08-19T09:34:00;34;32;
59758;PMS5003;61150;62.516;17.862;2022-08-19T09:36:30;34;30;
59758;PMS5003;61150;62.516;17.862;2022-08-19T09:38:59;38;36;
59758;PMS5003;61150;62.516;17.862;2022-08-19T09:41:28;30;29;
59758;PMS5003;61150;62.516;17.862;2022-08-19T09:43:57;29;28;
59758;PMS5003;61150;62.516;17.862;2022-08-19T09:46:26;33;32;
59758;PMS5003;61150;62.516;17.862;2022-08-19T09:48:57;28;27;
59758;PMS5003;61150;62.516;17.862;2022-08-19T09:51:28;34;33;
59758;PMS5003;61150;62.516;17.862;2022-08-19T09:53:59;22;22;
59758;PMS5003;61150;62.516;17.862;2022-08-19T09:56:29;25;22;
59758;PMS5003;61150;62.516;17.862;2022-08-19T09:59:00;22;21;
59758;PMS5003;61150;62.516;17.862;2022-08-19T10:02:53;23;22;
59758;PMS5003;61150;62.516;17.862;2022-08-19T10:05:23;20;20;
59758;PMS5003;61150;62.516;17.862;2022-08-19T10:07:52;24;23;
59758;PMS5003;61150;62.516;17.862;2022-08-19T10:10:21;42;41;
59758;PMS5003;61150;62.516;17.862;2022-08-19T10:12:50;21;21;
59758;PMS5003;61150;62.516;17.862;2022-08-19T10:15:20;32;29;
59758;PMS5003;61150;62.516;17.862;2022-08-19T10:17:49;34;33;
59758;PMS5003;61150;62.516;17.862;2022-08-19T10:20:17;28;28;
59758;PMS5003;61150;62.516;17.862;2022-08-19T10:22:45;38;35;
59758;PMS5003;61150;62.516;17.862;2022-08-19T10:25:14;54;51;
59758;PMS5003;61150;62.516;17.862;2022-08-19T10:27:43;64;64;
59758;PMS5003;61150;62.516;17.862;2022-08-19T10:30:12;47;47;
59758;PMS5003;61150;62.516;17.862;2022-08-19T10:32:41;30;27;
59758;PMS5003;61150;62.516;17.862;2022-08-19T10:35:11;18;18;
59758;PMS5003;61150;62.516;17.862;2022-08-19T10:37:40;19;19;
59758;PMS5003;61150;62.516;17.862;2022-08-19T10:40:10;20;20;
59758;PMS5003;61150;62.516;17.862;2022-08-19T10:42:40;18;17;
59758;PMS5003;61150;62.516;17.862;2022-08-19T10:45:09;14;13;
59758;PMS5003;61150;62.516;17.862;2022-08-19T10:47:38;16;16;
59758;PMS5003;61150;62.516;17.862;2022-08-19T10:50:07;23;22;
59758;PMS5003;61150;62.516;17.862;2022-08-19T10:52:36;17;17;
59758;PMS5003;61150;62.516;17.862;2022-08-19T10:55:06;22;21;
59758;PMS5003;61150;62.516;17.862;2022-08-19T10:57:35;22;22;
59758;PMS5003;61150;62.516;17.862;2022-08-19T11:00:04;20;19;
59758;PMS5003;61150;62.516;17.862;2022-08-19T11:02:34;13;13;
59758;PMS5003;61150;62.516;17.862;2022-08-19T11:05:03;17;17;
59758;PMS5003;61150;62.516;17.862;2022-08-19T11:07:32;17;16;
59758;PMS5003;61150;62.516;17.862;2022-08-19T11:10:02;20;20;
59758;PMS5003;61150;62.516;17.862;2022-08-19T11:12:32;13;13;
59758;PMS5003;61150;62.516;17.862;2022-08-19T11:15:01;14;13;
59758;PMS5003;61150;62.516;17.862;2022-08-19T11:17:30;21;21;
59758;PMS5003;61150;62.516;17.862;2022-08-19T11:19:59;23;23;
59758;PMS5003;61150;62.516;17.862;2022-08-19T11:22:27;16;16;
59758;PMS5003;61150;62.516;17.862;2022-08-19T11:24:57;15;15;
59758;PMS5003;61150;62.516;17.862;2022-08-19T11:27:26;13;13;
59758;PMS5003;61150;62.516;17.862;2022-08-19T11:29:55;19;18;
59758;PMS5003;61150;62.516;17.862;2022-08-19T11:32:24;16;15;
59758;PMS5003;61150;62.516;17.862;2022-08-19T11:34:53;11;11;
59758;PMS5003;61150;62.516;17.862;2022-08-19T11:37:21;12;12;
59758;PMS5003;61150;62.516;17.862;2022-08-19T11:39:50;15;14;
59758;PMS5003;61150;62.516;17.862;2022-08-19T11:42:19;19;19;
59758;PMS5003;61150;62.516;17.862;2022-08-19T11:44:48;14;14;
59758;PMS5003;61150;62.516;17.862;2022-08-19T11:47:16;20;20;
59758;PMS5003;61150;62.516;17.862;2022-08-19T11:49:45;26;26;
59758;PMS5003;61150;62.516;17.862;2022-08-19T11:52:14;14;13;
59758;PMS5003;61150;62.516;17.862;2022-08-19T11:54:42;13;13;
59758;PMS5003;61150;62.516;17.862;2022-08-19T11:57:12;14;14;
59758;PMS5003;61150;62.516;17.862;2022-08-19T11:59:41;12;12;
59758;PMS5003;61150;62.516;17.862;2022-08-19T12:02:10;20;20;
59758;PMS5003;61150;62.516;17.862;2022-08-19T12:04:38;22;21;
59758;PMS5003;61150;62.516;17.862;2022-08-19T12:07:08;25;24;
59758;PMS5003;61150;62.516;17.862;2022-08-19T12:09:37;18;18;
59758;PMS5003;61150;62.516;17.862;2022-08-19T12:12:06;36;36;
59758;PMS5003;61150;62.516;17.862;2022-08-19T12:14:34;14;14;
59758;PMS5003;61150;62.516;17.862;2022-08-19T12:17:04;20;19;
59758;PMS5003;61150;62.516;17.862;2022-08-19T12:19:33;19;19;
59758;PMS5003;61150;62.516;17.862;2022-08-19T12:22:01;22;21;
59758;PMS5003;61150;62.516;17.862;2022-08-19T12:24:30;22;22;
59758;PMS5003;61150;62.516;17.862;2022-08-19T12:27:00;18;17;
59758;PMS5003;61150;62.516;17.862;2022-08-19T12:29:29;20;18;
59758;PMS5003;61150;62.516;17.862;2022-08-19T12:31:58;22;21;
59758;PMS5003;61150;62.516;17.862;2022-08-19T12:34:27;22;21;
59758;PMS5003;61150;62.516;17.862;2022-08-19T12:36:58;16;15;
59758;PMS5003;61150;62.516;17.862;2022-08-19T12:39:34;18;18;
59758;PMS5003;61150;62.516;17.862;2022-08-19T12:42:03;21;20;
59758;PMS5003;61150;62.516;17.862;2022-08-19T12:44:32;21;20;
59758;PMS5003;61150;62.516;17.862;2022-08-19T12:47:02;23;23;
59758;PMS5003;61150;62.516;17.862;2022-08-19T12:49:30;24;24;
59758;PMS5003;61150;62.516;17.862;2022-08-19T12:52:00;21;20;
59758;PMS5003;61150;62.516;17.862;2022-08-19T12:54:29;18;18;
59758;PMS5003;61150;62.516;17.862;2022-08-19T12:56:58;18;18;
59758;PMS5003;61150;62.516;17.862;2022-08-19T12:59:27;16;16;
59758;PMS5003;61150;62.516;17.862;2022-08-19T13:02:54;23;22;
59758;PMS5003;61150;62.516;17.862;2022-08-19T13:05:25;33;33;
59758;PMS5003;61150;62.516;17.862;2022-08-19T13:07:58;24;24;
59758;PMS5003;61150;62.516;17.862;2022-08-19T13:10:30;20;19;
59758;PMS5003;61150;62.516;17.862;2022-08-19T13:13:00;17;16;
59758;PMS5003;61150;62.516;17.862;2022-08-19T13:15:32;20;19;
59758;PMS5003;61150;62.516;17.862;2022-08-19T13:18:02;27;27;
59758;PMS5003;61150;62.516;17.862;2022-08-19T13:20:31;16;16;
59758;PMS5003;61150;62.516;17.862;2022-08-19T13:23:00;21;20;
59758;PMS5003;61150;62.516;17.862;2022-08-19T13:25:28;29;24;
59758;PMS5003;61150;62.516;17.862;2022-08-19T13:27:58;21;21;
59758;PMS5003;61150;62.516;17.862;2022-08-19T13:30:28;33;32;
59758;PMS5003;61150;62.516;17.862;2022-08-19T13:32:58;17;17;
59758;PMS5003;61150;62.516;17.862;2022-08-19T13:35:27;21;21;
59758;PMS5003;61150;62.516;17.862;2022-08-19T13:37:56;20;19;
59758;PMS5003;61150;62.516;17.862;2022-08-19T13:40:26;22;22;
59758;PMS5003;61150;62.516;17.862;2022-08-19T13:42:55;19;19;
59758;PMS5003;61150;62.516;17.862;2022-08-19T13:45:25;23;21;
59758;PMS5003;61150;62.516;17.862;2022-08-19T13:47:57;29;29;
59758;PMS5003;61150;62.516;17.862;2022-08-19T13:50:26;29;29;
59758;PMS5003;61150;62.516;17.862;2022-08-19T13:52:59;27;26;
59758;PMS5003;61150;62.516;17.862;2022-08-19T13:55:29;36;35;
59758;PMS5003;61150;62.516;17.862;2022-08-19T13:57:58;24;24;
59758;PMS5003;61150;62.516;17.862;2022-08-19T14:00:29;22;21;
59758;PMS5003;61150;62.516;17.862;2022-08-19T14:03:00;26;25;
59758;PMS5003;61150;62.516;17.862;2022-08-19T14:05:30;22;22;
59758;PMS5003;61150;62.516;17.862;2022-08-19T14:08:00;26;24;
59758;PMS5003;61150;62.516;17.862;2022-08-19T14:10:30;25;23;
59758;PMS5003;61150;62.516;17.862;2022-08-19T14:13:00;31;28;
59758;PMS5003;61150;62.516;17.862;2022-08-19T14:15:31;23;21;
59758;PMS5003;61150;62.516;17.862;2022-08-19T14:18:00;20;18;
59758;PMS5003;61150;62.516;17.862;2022-08-19T14:20:29;22;21;
59758;PMS5003;61150;62.516;17.862;2022-08-19T14:22:58;21;21;
59758;PMS5003;61150;62.516;17.862;2022-08-19T14:25:26;25;24;
59758;PMS5003;61150;62.516;17.862;2022-08-19T14:27:57;21;21;
59758;PMS5003;61150;62.516;17.862;2022-08-19T14:30:27;23;22;
59758;PMS5003;61150;62.516;17.862;2022-08-19T14:32:59;24;23;
59758;PMS5003;61150;62.516;17.862;2022-08-19T14:35:29;25;24;
59758;PMS5003;61150;62.516;17.862;2022-08-19T14:38:00;24;23;
59758;PMS5003;61150;62.516;17.862;2022-08-19T14:40:30;23;22;
59758;PMS5003;61150;62.516;17.862;2022-08-19T14:43:00;25;25;
59758;PMS5003;61150;62.516;17.862;2022-08-19T14:45:33;21;21;
59758;PMS5003;61150;62.516;17.862;2022-08-19T14:48:03;26;25;
59758;PMS5003;61150;62.516;17.862;2022-08-19T14:50:34;23;23;
59758;PMS5003;61150;62.516;17.862;2022-08-19T14:53:03;25;23;
59758;PMS5003;61150;62.516;17.862;2022-08-19T14:55:34;20;19;
59758;PMS5003;61150;62.516;17.862;2022-08-19T14:58:03;22;21;
59758;PMS5003;61150;62.516;17.862;2022-08-19T15:00:31;21;20;
59758;PMS5003;61150;62.516;17.862;2022-08-19T15:03:00;22;21;
59758;PMS5003;61150;62.516;17.862;2022-08-19T15:05:29;24;24;
59758;PMS5003;61150;62.516;17.862;2022-08-19T15:07:57;27;26;
59758;PMS5003;61150;62.516;17.862;2022-08-19T15:10:29;21;21;
59758;PMS5003;61150;62.516;17.862;2022-08-19T15:12:58;22;20;
59758;PMS5003;61150;62.516;17.862;2022-08-19T15:15:27;23;22;
59758;PMS5003;61150;62.516;17.862;2022-08-19T15:17:56;20;20;
59758;PMS5003;61150;62.516;17.862;2022-08-19T15:20:25;25;25;
59758;PMS5003;61150;62.516;17.862;2022-08-19T15:22:55;23;21;
59758;PMS5003;61150;62.516;17.862;2022-08-19T15:25:25;28;26;
59758;PMS5003;61150;62.516;17.862;2022-08-19T15:27:55;28;26;
59758;PMS5003;61150;62.516;17.862;2022-08-19T15:30:25;31;28;
59758;PMS5003;61150;62.516;17.862;2022-08-19T15:32:57;36;35;
59758;PMS5003;61150;62.516;17.862;2022-08-19T15:35:27;31;30;
59758;PMS5003;61150;62.516;17.862;2022-08-19T15:37:56;27;26;
59758;PMS5003;61150;62.516;17.862;2022-08-19T15:40:25;25;24;
59758;PMS5003;61150;62.516;17.862;2022-08-19T15:42:54;21;21;
59758;PMS5003;61150;62.516;17.862;2022-08-19T15:45:25;23;22;
59758;PMS5003;61150;62.516;17.862;2022-08-19T15:47:55;30;29;
59758;PMS5003;61150;62.516;17.862;2022-08-19T15:50:23;27;26;
59758;PMS5003;61150;62.516;17.862;2022-08-19T15:52:54;27;26;
59758;PMS5003;61150;62.516;17.862;2022-08-19T15:55:25;30;30;
59758;PMS5003;61150;62.516;17.862;2022-08-19T15:57:55;26;26;
59758;PMS5003;61150;62.516;17.862;2022-08-19T16:03:00;28;27;
59758;PMS5003;61150;62.516;17.862;2022-08-19T16:05:29;26;24;
59758;PMS5003;61150;62.516;17.862;2022-08-19T16:07:57;24;24;
59758;PMS5003;61150;62.516;17.862;2022-08-19T16:10:27;29;28;
59758;PMS5003;61150;62.516;17.862;2022-08-19T16:12:56;25;24;
59758;PMS5003;61150;62.516;17.862;2022-08-19T16:15:26;21;20;
59758;PMS5003;61150;62.516;17.862;2022-08-19T16:17:57;25;24;
59758;PMS5003;61150;62.516;17.862;2022-08-19T16:20:27;22;22;
59758;PMS5003;61150;62.516;17.862;2022-08-19T16:22:55;22;22;
59758;PMS5003;61150;62.516;17.862;2022-08-19T16:25:24;23;22;
59758;PMS5003;61150;62.516;17.862;2022-08-19T16:27:54;24;23;
59758;PMS5003;61150;62.516;17.862;2022-08-19T16:30:24;22;22;
59758;PMS5003;61150;62.516;17.862;2022-08-19T16:32:53;22;21;
59758;PMS5003;61150;62.516;17.862;2022-08-19T16:35:21;27;26;